Airfield :
LOGIN :

Register | Disclaimer

   EN    FR    IT 

 










Legend :    VFR   Marginal VFR   IFR   Intensive IFR   Very Intensive IFR
Visi :
Ceiling :
>= 8 km
>= 3000ft
5 to 8 km
1000 to 3000 ft
1500m to 5 km
500 to 1000 ft
800 to 1500m
200 to 500 ft
< 800m
< 200 ft
Symbols :   Thunderstorms  Fog  Heavy snow  Heavy precipitations  Wind > 20 kt
SIGMETs :     Misc.  Thunderstorms  Icing  Turbulence  Mountain Waves  Volcanic Ashes






- Airport Elevation : 74 ft
- IATA code : LRH


LFBH - La Rochelle Ile de Ré

CURRENT METAR :
  • 131730Z AUTO 32005KT 250V350 CAVOK 28/18 Q1020 NOSIG

EXPIRED METARs :
  • 131700Z AUTO 08008KT 020V120 CAVOK 31/15 Q1020 BECMG 30010KT
  • 131630Z AUTO 05009KT 010V090 CAVOK 32/14 Q1020 BECMG 30010KT
  • 131600Z AUTO 05009KT 010V100 CAVOK 32/14 Q1020 BECMG 30010KT
  • 131530Z AUTO 04009KT 010V100 CAVOK 32/14 Q1020 BECMG 30010KT
  • 131500Z AUTO 05009KT 350V100 CAVOK 32/15 Q1020 NOSIG

TAF TAF LFBH
Valid from the 13 at 18:00 until the 14 at 18:00 UTC


131700Z 1318/1418 03010KT CAVOK
TEMPO 1318/1321 30010KT
BECMG 1410/1412 30010KT
ATIS : +33 5 46 00 13 92



MET'MAP, your aeronautical weather chart ! - Copyright ORBIFLY December 2007 - Disclaimer

ORBIFLY MET'MAP TEAM :

Programming & Development : Alexandra Zaïnal
Concept & original design : Baudouin d'Aumeries
Assistance for programming : Marc-Olivier Méhu
Technical & hardware support : Manuel Goepfert

Contact : metmap@orbifly.com




SOURCES & CREDITS :

   NOAA